Time;durP1;ratioP1;P1;durP2;ratioP2;P2;SDS_P1;SDS_P2;PMS_P1;PMS_P2;Temp;Humidity;BMP_temperature;BMP_pressure;BME280_temperature;BME280_humidity;BME280_pressure;Samples;Min_cycle;Max_cycle;Signal;HPM_P1;HPM_P2
2022/11/06 00:01:09;;;;;;;17.70;12.00;;;;;;;8.34;94.22;98702.41;106409;1310;22332;-79
2022/11/06 00:03:36;;;;;;;18.10;12.20;;;;;;;8.34;94.19;98703.12;106432;1310;138401;-77
2022/11/06 00:08:59;;;;;;;20.30;12.20;;;;;;;8.33;93.99;98704.14;106341;1310;138384;-77
2022/11/06 00:11:25;;;;;;;;;;;;;;;8.32;94.00;98702.63;106397;1295;23200;-77
2022/11/06 00:13:51;;;;;;;19.20;12.20;;;;;;;8.30;93.84;98705.61;106494;1310;124836;-77
2022/11/06 00:16:18;;;;;;;21.20;11.60;;;;;;;8.30;93.96;98710.04;106486;1308;22209;-76
2022/11/06 00:18:51;;;;;;;18.00;10.60;;;;;;;8.29;94.00;98710.52;106448;1310;22200;-77
2022/11/06 00:21:23;;;;;;;21.70;12.20;;;;;;;8.28;93.85;98716.83;106359;1310;138792;-76
2022/11/06 00:23:51;;;;;;;21.90;13.10;;;;;;;8.26;93.69;98719.52;106342;1311;22223;-77
2022/11/06 00:26:19;;;;;;;23.70;13.30;;;;;;;8.25;93.94;98721.07;106299;1312;138864;-76
2022/11/06 00:28:46;;;;;;;27.80;13.90;;;;;;;8.24;93.57;98721.95;106413;1310;22212;-76
2022/11/06 00:31:16;;;;;;;23.50;13.20;;;;;;;8.20;93.52;98722.98;106437;1312;22177;-77
2022/11/06 00:33:42;;;;;;;;;;;;;;;8.16;93.49;98720.98;106300;1298;138682;-77
2022/11/06 00:36:11;;;;;;;25.00;13.50;;;;;;;8.10;93.17;98719.52;106560;1303;22370;-77
2022/11/06 00:38:37;;;;;;;;;;;;;;;8.06;93.52;98719.11;106205;1310;138341;-77
2022/11/06 00:41:06;;;;;;;23.70;13.90;;;;;;;8.03;93.76;98717.06;106518;1304;22198;-77
2022/11/06 00:43:34;;;;;;;26.60;14.10;;;;;;;8.01;93.94;98717.27;106235;1307;138464;-77
2022/11/06 00:46:01;;;;;;;23.00;13.40;;;;;;;7.98;93.70;98717.88;106473;1311;22205;-77
2022/11/06 00:48:28;;;;;;;23.10;12.60;;;;;;;7.95;93.78;98720.13;106472;1311;23132;-77
2022/11/06 00:50:54;;;;;;;21.60;13.00;;;;;;;7.93;93.73;98718.02;106448;1306;138560;-77
2022/11/06 00:53:20;;;;;;;25.80;13.90;;;;;;;7.92;93.92;98720.23;106548;1296;22176;-76
2022/11/06 00:55:46;;;;;;;24.40;13.90;;;;;;;7.92;94.16;98718.44;106545;1310;138604;-77
2022/11/06 00:58:13;;;;;;;22.30;13.30;;;;;;;7.91;94.06;98718.36;106506;1310;22095;-77
2022/11/06 01:00:39;;;;;;;27.40;13.10;;;;;;;7.91;94.16;98718.58;106597;1303;22148;-77
2022/11/06 01:03:07;;;;;;;23.00;12.70;;;;;;;7.91;94.04;98720.31;106367;1298;138521;-77
2022/11/06 01:05:33;;;;;;;22.70;13.80;;;;;;;7.92;94.17;98723.98;106482;1312;22792;-77
2022/11/06 01:08:00;;;;;;;21.10;12.10;;;;;;;7.91;93.94;98732.04;106462;1310;138524;-77
2022/11/06 01:10:26;;;;;;;20.10;12.00;;;;;;;7.92;94.03;98731.92;106559;1295;22918;-76
2022/11/06 01:12:52;;;;;;;20.60;11.10;;;;;;;7.92;93.88;98730.62;106551;1301;22105;-77
2022/11/06 01:15:18;;;;;;;19.90;11.00;;;;;;;7.90;93.48;98729.13;106444;1312;138301;-77
2022/11/06 01:17:44;;;;;;;21.60;12.30;;;;;;;7.90;93.61;98733.04;106561;1311;22190;-77
2022/11/06 01:20:13;;;;;;;23.10;13.90;;;;;;;7.89;93.67;98732.02;106453;1312;138386;-76
2022/11/06 01:22:39;;;;;;;24.10;13.00;;;;;;;7.88;93.65;98728.52;106478;1296;22875;-77
2022/11/06 01:25:06;;;;;;;23.40;12.90;;;;;;;7.88;93.67;98727.15;106608;1305;22182;-77
2022/11/06 01:27:32;;;;;;;23.90;11.90;;;;;;;7.88;93.49;98720.59;106506;1310;138415;-77
2022/11/06 01:29:59;;;;;;;20.60;10.90;;;;;;;7.87;93.15;98727.61;106626;1310;22927;-77
2022/11/06 01:32:25;;;;;;;18.90;10.20;;;;;;;7.86;93.34;98729.42;106419;1305;138668;-76
2022/11/06 01:34:52;;;;;;;21.30;10.30;;;;;;;7.84;93.20;98729.14;106524;1298;22179;-77
2022/11/06 01:37:18;;;;;;;20.10;10.30;;;;;;;7.81;92.97;98730.25;106572;1304;22216;-77
2022/11/06 01:39:44;;;;;;;16.80;10.10;;;;;;;7.80;93.33;98732.17;106455;1312;138344;-77
2022/11/06 01:42:12;;;;;;;17.20;9.40;;;;;;;7.80;93.40;98731.67;106576;1304;22341;-77
2022/11/06 01:44:42;;;;;;;17.00;9.10;;;;;;;7.80;93.50;98730.25;106251;1304;138231;-77
2022/11/06 01:47:28;;;;;;;22.70;10.00;;;;;;;7.80;93.36;98733.21;106583;1310;22187;-77
2022/11/06 01:49:58;;;;;;;16.50;9.60;;;;;;;7.81;93.17;98735.51;106266;1313;141523;-77
2022/11/06 01:52:27;;;;;;;18.00;10.00;;;;;;;7.82;93.19;98732.21;106491;1290;22185;-77
2022/11/06 01:54:56;;;;;;;;;;;;;;;7.81;93.18;98737.67;106424;1304;22388;-77
2022/11/06 01:57:23;;;;;;;20.40;10.30;;;;;;;7.79;93.01;98738.68;106456;1303;124666;-77
2022/11/06 01:59:53;;;;;;;18.80;10.40;;;;;;;7.78;93.22;98736.77;106525;1312;22073;-77
2022/11/06 02:02:19;;;;;;;19.70;10.00;;;;;;;7.76;92.77;98734.20;106356;1312;138667;-77
2022/11/06 02:04:47;;;;;;;19.80;10.40;;;;;;;7.74;93.00;98736.84;106242;1298;22182;-77
2022/11/06 02:07:17;;;;;;;21.20;10.70;;;;;;;7.74;93.23;98739.44;106221;1312;22179;-77
2022/11/06 02:09:45;;;;;;;22.70;10.50;;;;;;;7.73;93.12;98739.56;106379;1307;138206;-77
2022/11/06 02:12:36;;;;;;;19.80;9.90;;;;;;;7.71;93.09;98735.16;106326;1309;22204;-77
2022/11/06 02:15:25;;;;;;;20.60;10.00;;;;;;;7.70;92.95;98739.13;106436;1288;138150;-77
2022/11/06 02:18:07;;;;;;;20.00;10.30;;;;;;;7.69;92.95;98737.92;106478;1312;22986;-77
2022/11/06 02:20:40;;;;;;;;;;;;;;;7.68;92.96;98732.52;106314;1311;138676;-77
2022/11/06 02:23:39;;;;;;;16.20;8.90;;;;;;;7.65;92.65;98733.25;106442;1312;22693;-77
2022/11/06 02:26:44;;;;;;;15.00;8.00;;;;;;;7.64;93.02;98738.33;106453;1304;138425;-77
2022/11/06 02:29:16;;;;;;;19.00;8.70;;;;;;;7.64;93.09;98738.83;105829;1319;23515;-77
2022/11/06 02:31:44;;;;;;;14.70;8.30;;;;;;;7.65;93.33;98738.95;105671;1318;138506;-77
2022/11/06 02:34:17;;;;;;;17.10;9.20;;;;;;;7.65;93.27;98741.63;105821;1301;23145;-77
2022/11/06 02:36:57;;;;;;;16.50;7.90;;;;;;;7.66;93.33;98744.91;105898;1318;22160;-77
2022/11/06 02:39:26;;;;;;;15.00;8.90;;;;;;;7.66;93.23;98749.59;105779;1316;138446;-77
2022/11/06 02:41:56;;;;;;;18.60;9.50;;;;;;;7.67;93.34;98749.13;105579;1316;23000;-77
2022/11/06 02:44:26;;;;;;;18.30;9.40;;;;;;;7.67;93.44;98749.83;105676;1310;138800;-77
2022/11/06 02:46:59;;;;;;;14.60;8.40;;;;;;;7.68;93.35;98747.48;105948;1316;22815;-77
2022/11/06 02:49:43;;;;;;;17.90;8.10;;;;;;;7.69;93.39;98752.73;105429;1317;138736;-77
2022/11/06 02:52:24;;;;;;;21.30;9.30;;;;;;;7.70;93.13;98755.31;105992;1316;22333;-77
2022/11/06 02:55:02;;;;;;;17.00;8.10;;;;;;;7.71;93.22;98754.88;105844;1303;22400;-78
2022/11/06 02:57:34;;;;;;;14.00;8.00;;;;;;;7.71;92.86;98754.89;105489;1318;138406;-77
2022/11/06 03:00:08;;;;;;;13.60;7.60;;;;;;;7.70;92.77;98754.38;105622;1318;22939;-77
2022/11/06 03:02:57;;;;;;;13.10;7.10;;;;;;;7.70;92.65;98752.67;105635;1318;138243;-77
2022/11/06 03:05:26;;;;;;;;;;;;;;;7.70;92.93;98761.86;105849;1308;22178;-77
2022/11/06 03:08:02;;;;;;;14.10;7.40;;;;;;;7.69;93.06;98756.95;106362;1312;124785;-77
2022/11/06 03:10:32;;;;;;;12.80;7.00;;;;;;;7.68;93.05;98758.15;106527;1311;22204;-78
2022/11/06 03:13:09;;;;;;;14.60;8.10;;;;;;;7.67;93.01;98753.91;106230;1313;22938;-77
2022/11/06 03:16:20;;;;;;;17.60;8.90;;;;;;;7.67;93.26;98753.40;106234;1299;138352;-77
2022/11/06 03:19:12;;;;;;;19.10;9.50;;;;;;;7.66;92.95;98751.47;106375;1310;22198;-77
2022/11/06 03:21:54;;;;;;;17.80;9.00;;;;;;;7.63;92.66;98750.52;106338;1310;140794;-77
2022/11/06 03:24:39;;;;;;;11.60;7.60;;;;;;;7.62;92.90;98746.23;106583;1310;22199;-77
2022/11/06 03:27:17;;;;;;;18.90;9.50;;;;;;;7.60;93.11;98746.83;106406;1304;138211;-77
2022/11/06 03:29:48;;;;;;;24.70;12.70;;;;;;;7.59;92.92;98747.89;106511;1304;22196;-77
2022/11/06 03:32:29;;;;;;;21.80;11.20;;;;;;;7.57;93.09;98744.63;106355;1312;138614;-77
2022/11/06 03:35:15;;;;;;;20.30;11.70;;;;;;;7.57;93.21;98745.92;106533;1310;22989;-77
2022/11/06 03:38:06;;;;;;;23.50;12.10;;;;;;;7.56;93.19;98749.31;106339;1298;138667;-77
2022/11/06 03:40:37;;;;;;;18.50;10.30;;;;;;;7.55;92.95;98756.70;106482;1312;22180;-77
2022/11/06 03:43:08;;;;;;;15.30;8.70;;;;;;;7.54;92.92;98759.45;106578;1302;22287;-77
2022/11/06 03:45:36;;;;;;;15.00;8.20;;;;;;;7.49;92.51;98761.32;106490;1310;138349;-77
2022/11/06 03:48:13;;;;;;;18.50;9.00;;;;;;;7.45;92.41;98761.38;106390;1301;22307;-77
2022/11/06 03:50:43;;;;;;;15.90;8.20;;;;;;;7.40;92.50;98764.73;106395;1308;138246;-77
2022/11/06 03:53:29;;;;;;;14.50;8.90;;;;;;;7.38;92.62;98770.14;106449;1298;22854;-77
2022/11/06 03:56:05;;;;;;;14.50;8.10;;;;;;;7.37;92.44;98773.31;106456;1304;138448;-77
2022/11/06 03:58:38;;;;;;;15.30;7.90;;;;;;;7.37;92.76;98775.52;106436;1312;22271;-77
2022/11/06 04:01:07;;;;;;;20.20;8.50;;;;;;;7.37;92.96;98781.65;106398;1312;22202;-77
2022/11/06 04:03:53;;;;;;;19.60;8.30;;;;;;;7.37;92.99;98780.77;106426;1311;138225;-77
2022/11/06 04:06:31;;;;;;;14.10;9.00;;;;;;;7.36;93.05;98780.95;106507;1298;23149;-78
2022/11/06 04:14:36;;;;;;;18.90;10.20;;;;;;;7.36;93.50;98788.74;106375;1312;138203;-77
2022/11/06 04:17:07;;;;;;;15.60;9.00;;;;;;;7.36;93.44;98787.98;106511;1296;23444;-77
2022/11/06 04:19:41;;;;;;;19.50;9.50;;;;;;;7.35;93.35;98792.03;106470;1309;138399;-77
2022/11/06 04:22:10;;;;;;;16.60;9.40;;;;;;;7.35;93.07;98793.59;106473;1312;22224;-77
2022/11/06 04:28:15;;;;;;;18.70;10.70;;;;;;;7.33;93.25;98794.64;106767;1301;22192;-77
2022/11/06 04:30:59;;;;;;;21.60;9.40;;;;;;;7.32;93.32;98797.67;106494;1311;22240;-79
2022/11/06 04:33:34;;;;;;;20.40;10.10;;;;;;;7.32;93.23;98798.34;106282;1312;138263;-77
2022/11/06 04:36:33;;;;;;;15.70;9.00;;;;;;;7.31;93.29;98800.02;106516;1312;22264;-77
2022/11/06 04:39:30;;;;;;;19.20;9.80;;;;;;;7.31;93.42;98798.10;106355;1301;138224;-77
2022/11/06 04:42:24;;;;;;;20.60;10.70;;;;;;;7.29;93.27;98802.27;106421;1312;22190;-77
2022/11/06 04:44:56;;;;;;;21.10;11.40;;;;;;;7.29;93.17;98798.42;106293;1312;138453;-77
2022/11/06 04:47:23;;;;;;;24.20;12.50;;;;;;;7.28;93.27;98799.02;106484;1302;22382;-77
2022/11/06 04:49:57;;;;;;;20.10;11.30;;;;;;;7.28;93.09;98801.40;106412;1312;138752;-77
2022/11/06 04:52:27;;;;;;;21.70;12.30;;;;;;;7.27;93.03;98801.50;106434;1312;22201;-77
2022/11/06 04:54:56;;;;;;;19.90;11.30;;;;;;;7.25;92.91;98802.70;106528;1311;22241;-77
2022/11/06 04:57:22;;;;;;;19.60;10.50;;;;;;;7.24;92.82;98806.29;106168;1312;138618;-77
2022/11/06 04:59:49;;;;;;;20.40;10.50;;;;;;;7.21;92.71;98809.89;106572;1310;22991;-77
2022/11/06 05:02:15;;;;;;;18.40;11.20;;;;;;;7.19;92.77;98808.23;106487;1310;138522;-77
2022/11/06 05:04:41;;;;;;;20.40;11.20;;;;;;;7.18;92.80;98808.27;106460;1307;22052;-77
2022/11/06 05:07:08;;;;;;;24.40;10.20;;;;;;;7.17;92.92;98811.86;106587;1310;22385;-77
2022/11/06 05:09:34;;;;;;;20.90;11.70;;;;;;;7.17;92.81;98809.36;106408;1301;138417;-77
2022/11/06 05:12:02;;;;;;;20.20;10.30;;;;;;;7.15;92.77;98811.88;106713;1302;22186;-77
2022/11/06 05:14:29;;;;;;;20.50;9.50;;;;;;;7.13;92.51;98812.08;106375;1312;138777;-77
2022/11/06 05:16:55;;;;;;;20.40;9.30;;;;;;;7.10;92.49;98811.59;106537;1310;22278;-77
2022/11/06 05:19:22;;;;;;;19.80;10.50;;;;;;;7.06;92.28;98805.98;106526;1300;22849;-77
2022/11/06 05:24:34;;;;;;;19.60;9.60;;;;;;;7.06;92.80;98807.20;106502;1313;22272;-77
2022/11/06 05:27:00;;;;;;;20.00;9.10;;;;;;;7.04;92.54;98815.12;106466;1310;138209;-77
2022/11/06 05:29:26;;;;;;;20.70;9.20;;;;;;;7.03;92.36;98813.04;106538;1302;23122;-77
2022/11/06 05:31:52;;;;;;;15.70;8.50;;;;;;;7.03;92.63;98816.00;106433;1312;138427;-77
2022/11/06 05:34:19;;;;;;;15.00;8.20;;;;;;;7.01;92.69;98809.50;106510;1312;22641;-77
2022/11/06 05:36:46;;;;;;;13.70;8.40;;;;;;;7.01;92.40;98811.95;106431;1312;22223;-77
2022/11/06 05:39:12;;;;;;;16.90;9.20;;;;;;;6.99;92.53;98813.80;106396;1299;138193;-77
2022/11/06 05:41:38;;;;;;;16.60;8.00;;;;;;;6.98;92.40;98816.86;106605;1310;22233;-77
2022/11/06 05:44:04;;;;;;;16.40;8.40;;;;;;;6.96;92.21;98822.05;106378;1313;138605;-79
2022/11/06 05:46:31;;;;;;;17.80;9.00;;;;;;;6.92;92.26;98821.10;106297;1295;22197;-77
2022/11/06 05:48:57;;;;;;;15.90;9.00;;;;;;;6.92;92.25;98826.22;106531;1302;22351;-77
2022/11/06 05:51:23;;;;;;;16.00;8.60;;;;;;;6.91;92.64;98827.27;106423;1312;138714;-77
2022/11/06 05:53:49;;;;;;;17.40;8.30;;;;;;;6.91;92.54;98829.27;106650;1305;22252;-77
2022/11/06 05:56:16;;;;;;;15.30;8.50;;;;;;;6.92;92.40;98833.10;106478;1312;138420;-77
2022/11/06 05:58:42;;;;;;;15.30;8.70;;;;;;;6.92;92.61;98835.60;106431;1307;22801;-77
2022/11/06 06:01:09;;;;;;;15.70;8.30;;;;;;;6.93;92.86;98837.77;106581;1310;22831;-77
2022/11/06 06:03:36;;;;;;;15.10;8.80;;;;;;;6.94;92.91;98839.10;106480;1310;138326;-77
2022/11/06 06:06:02;;;;;;;16.80;8.60;;;;;;;6.95;92.92;98843.43;106476;1313;23153;-77
2022/11/06 06:08:28;;;;;;;14.80;7.70;;;;;;;6.98;93.19;98849.95;106487;1307;138301;-77
2022/11/06 06:10:54;;;;;;;18.10;9.20;;;;;;;7.00;93.08;98850.75;106520;1301;22197;-77
2022/11/06 06:13:21;;;;;;;21.30;9.20;;;;;;;7.01;92.93;98854.33;106470;1312;22203;-77
2022/11/06 06:15:47;;;;;;;16.90;8.60;;;;;;;7.03;92.98;98858.98;106223;1313;138228;-78
2022/11/06 06:18:13;;;;;;;14.60;7.80;;;;;;;7.05;93.19;98857.86;106424;1312;22221;-77
2022/11/06 06:20:39;;;;;;;18.70;11.20;;;;;;;7.07;93.35;98857.98;106460;1299;138217;-77
2022/11/06 06:23:06;;;;;;;20.10;9.10;;;;;;;7.09;93.36;98856.23;106574;1313;23001;-77
2022/11/06 06:25:32;;;;;;;20.10;8.80;;;;;;;7.12;93.46;98855.54;106342;1312;139266;-77
2022/11/06 06:27:58;;;;;;;18.10;9.60;;;;;;;7.16;93.55;98854.33;106566;1311;22132;-77
2022/11/06 06:30:25;;;;;;;15.80;9.40;;;;;;;7.19;93.56;98857.44;106513;1302;22232;-77
2022/11/06 06:32:51;;;;;;;15.80;8.90;;;;;;;7.21;93.52;98859.90;106423;1310;138486;-77
2022/11/06 06:35:18;;;;;;;15.40;9.10;;;;;;;7.23;93.35;98858.14;106430;1312;22123;-77
2022/11/06 06:37:51;;;;;;;15.30;9.80;;;;;;;7.27;93.41;98860.95;106257;1309;138330;-77
2022/11/06 06:40:17;;;;;;;17.70;10.40;;;;;;;7.31;93.72;98865.07;106465;1310;22202;-77
2022/11/06 06:42:44;;;;;;;15.40;9.10;;;;;;;7.35;93.51;98869.02;106578;1310;22179;-77
2022/11/06 06:45:10;;;;;;;16.40;10.00;;;;;;;7.37;93.53;98867.92;106476;1310;138196;-77
2022/11/06 06:47:37;;;;;;;18.60;11.10;;;;;;;7.41;93.74;98862.73;106597;1310;22207;-77
2022/11/06 06:50:03;;;;;;;18.60;11.30;;;;;;;7.45;93.68;98866.35;106481;1301;138669;-77
2022/11/06 06:52:29;;;;;;;24.70;11.70;;;;;;;7.49;93.41;98870.05;106524;1310;22809;-77
2022/11/06 06:54:56;;;;;;;21.30;12.70;;;;;;;7.54;93.54;98875.94;106572;1310;23038;-77
2022/11/06 06:57:22;;;;;;;24.40;13.80;;;;;;;7.58;93.28;98879.35;106427;1310;138390;-77
2022/11/06 06:59:48;;;;;;;22.20;14.00;;;;;;;7.62;93.39;98875.08;106526;1302;22198;-78
2022/11/06 07:02:14;;;;;;;22.50;12.70;;;;;;;7.65;93.15;98874.66;106403;1310;138577;-77
2022/11/06 07:04:40;;;;;;;29.10;12.70;;;;;;;7.67;92.92;98872.73;106510;1311;22241;-77
2022/11/06 07:07:07;;;;;;;21.20;12.20;;;;;;;7.70;93.00;98881.88;106444;1310;22910;-77
2022/11/06 07:09:33;;;;;;;21.80;13.10;;;;;;;7.73;93.06;98876.16;106430;1310;138425;-77
2022/11/06 07:11:59;;;;;;;25.80;14.10;;;;;;;7.76;93.03;98874.59;106803;1293;22238;-77
2022/11/06 07:14:25;;;;;;;25.40;14.10;;;;;;;7.80;93.14;98875.37;106351;1312;138410;-77
2022/11/06 07:16:51;;;;;;;23.50;13.60;;;;;;;7.83;93.11;98872.77;106597;1308;22187;-77
2022/11/06 07:19:18;;;;;;;22.20;12.80;;;;;;;7.88;93.46;98874.61;106478;1310;22316;-77
2022/11/06 07:21:44;;;;;;;21.00;12.00;;;;;;;7.91;92.97;98877.06;106422;1301;138217;-78
2022/11/06 07:24:10;;;;;;;21.30;12.40;;;;;;;7.94;93.01;98889.05;106811;1302;23117;-77
2022/11/06 07:26:37;;;;;;;26.80;11.90;;;;;;;7.98;92.96;98884.02;106434;1305;138372;-77
2022/11/06 07:29:03;;;;;;;19.60;10.60;;;;;;;8.02;92.92;98876.84;106449;1287;22275;-77
2022/11/06 07:31:30;;;;;;;20.50;12.10;;;;;;;8.04;92.20;98868.30;106462;1299;138800;-77
2022/11/06 07:33:56;;;;;;;24.10;10.10;;;;;;;8.07;92.21;98866.82;106472;1299;22275;-77
2022/11/06 07:36:22;;;;;;;17.80;9.10;;;;;;;8.11;91.94;98867.17;106477;1308;22126;-77
2022/11/06 07:38:48;;;;;;;24.20;9.40;;;;;;;8.16;91.52;98869.13;106445;1286;138633;-78
2022/11/06 07:41:15;;;;;;;20.90;9.00;;;;;;;8.22;91.38;98870.02;106323;1302;22336;-77
2022/11/06 07:43:42;;;;;;;25.00;9.10;;;;;;;8.22;90.26;98868.30;106330;1312;138486;-77
2022/11/06 07:46:11;;;;;;;19.40;9.00;;;;;;;8.23;90.14;98865.92;106323;1311;23356;-78
2022/11/06 07:48:38;;;;;;;;;;;;;;;8.26;90.36;98869.45;106435;1309;22409;-78
2022/11/06 07:51:07;;;;;;;19.50;8.80;;;;;;;8.30;90.59;98869.13;106308;1309;124962;-78
2022/11/06 07:53:33;;;;;;;15.00;8.60;;;;;;;8.34;90.37;98867.52;106455;1310;22331;-78
2022/11/06 07:55:59;;;;;;;15.50;8.50;;;;;;;8.38;90.32;98866.82;106247;1311;138802;-78
2022/11/06 07:58:26;;;;;;;19.70;8.70;;;;;;;8.41;89.97;98868.38;106514;1310;23023;-77
2022/11/06 08:00:54;;;;;;;15.00;8.00;;;;;;;8.42;89.40;98863.04;106493;1310;22331;-77
2022/11/06 08:03:22;;;;;;;15.10;8.10;;;;;;;8.41;89.10;98862.16;106296;1298;138427;-78
2022/11/06 08:05:49;;;;;;;20.70;9.10;;;;;;;8.42;88.95;98862.65;106428;1310;22276;-78
2022/11/06 08:08:17;;;;;;;17.80;8.70;;;;;;;8.45;89.20;98859.48;106455;1310;138619;-78
2022/11/06 08:10:43;;;;;;;15.40;7.80;;;;;;;8.49;89.21;98865.00;106377;1288;22376;-78
2022/11/06 08:13:11;;;;;;;16.90;8.10;;;;;;;8.52;88.96;98865.09;106501;1296;22300;-78
2022/11/06 08:15:37;;;;;;;17.80;8.90;;;;;;;8.54;89.01;98865.04;106323;1310;138531;-78
2022/11/06 08:18:08;;;;;;;18.00;7.70;;;;;;;8.58;88.79;98865.42;106708;1302;22269;-78
2022/11/06 08:20:35;;;;;;;18.30;8.20;;;;;;;8.61;88.72;98864.11;106221;1310;138377;-78
2022/11/06 08:23:05;;;;;;;15.50;8.30;;;;;;;8.66;88.52;98864.95;106281;1312;22157;-79
2022/11/06 08:25:34;;;;;;;17.60;9.20;;;;;;;8.67;88.26;98864.01;106335;1310;139816;-78
2022/11/06 08:28:01;;;;;;;16.40;8.70;;;;;;;8.72;88.62;98863.02;106418;1310;23015;-78
2022/11/06 08:30:29;;;;;;;19.90;9.20;;;;;;;8.80;88.82;98858.26;106403;1311;22281;-78
2022/11/06 08:33:03;;;;;;;18.00;8.40;;;;;;;8.86;88.91;98856.65;106626;1300;138398;-78
2022/11/06 08:35:30;;;;;;;19.80;9.20;;;;;;;8.92;88.48;98855.59;106353;1310;22791;-78
2022/11/06 08:37:56;;;;;;;16.90;9.50;;;;;;;8.97;87.93;98854.48;106559;1300;138868;-78
2022/11/06 08:40:23;;;;;;;15.80;8.70;;;;;;;9.02;87.84;98855.41;106547;1310;22206;-78
2022/11/06 08:42:49;;;;;;;16.50;8.70;;;;;;;9.04;87.67;98855.05;106436;1304;22303;-78
2022/11/06 08:45:16;;;;;;;16.90;9.60;;;;;;;9.08;87.71;98852.79;106333;1310;138425;-78
2022/11/06 08:47:42;;;;;;;17.30;8.70;;;;;;;9.09;87.37;98855.79;106346;1310;22093;-79
2022/11/06 08:50:08;;;;;;;17.40;9.50;;;;;;;9.09;87.59;98855.37;106383;1294;138441;-78
2022/11/06 08:52:35;;;;;;;15.10;9.80;;;;;;;9.12;87.41;98854.45;106535;1296;22156;-78
2022/11/06 08:55:01;;;;;;;24.40;9.30;;;;;;;9.13;87.18;98855.74;106603;1310;22368;-78
2022/11/06 08:57:27;;;;;;;23.60;9.70;;;;;;;9.14;87.25;98857.98;106737;1298;138551;-78
2022/11/06 08:59:53;;;;;;;19.10;10.70;;;;;;;9.15;87.62;98862.11;106611;1306;22243;-78
2022/11/06 09:02:19;;;;;;;19.40;9.60;;;;;;;9.18;87.83;98862.09;106447;1297;137656;-78
2022/11/06 09:04:46;;;;;;;21.60;10.40;;;;;;;9.21;87.77;98861.96;106464;1312;22217;-78
2022/11/06 09:07:12;;;;;;;21.00;10.00;;;;;;;9.24;87.74;98855.38;106542;1310;22237;-78
2022/11/06 09:09:38;;;;;;;20.60;9.60;;;;;;;9.30;87.45;98853.30;106487;1310;138592;-78
2022/11/06 09:12:05;;;;;;;17.50;10.00;;;;;;;9.34;87.41;98857.19;106571;1310;22259;-78
2022/11/06 09:14:33;;;;;;;20.20;9.50;;;;;;;9.40;87.49;98855.48;106525;1296;138677;-78
2022/11/06 09:16:59;;;;;;;19.50;10.40;;;;;;;9.47;87.32;98852.60;106670;1310;22435;-78
2022/11/06 09:19:25;;;;;;;24.30;10.60;;;;;;;9.51;87.23;98852.62;106806;1303;138796;-78
2022/11/06 09:21:51;;;;;;;21.20;9.50;;;;;;;9.53;86.24;98856.45;106564;1305;22336;-78
2022/11/06 09:24:18;;;;;;;19.50;11.50;;;;;;;9.49;85.61;98852.17;106586;1298;22318;-78
2022/11/06 09:26:44;;;;;;;19.60;10.20;;;;;;;9.50;85.56;98855.90;106430;1310;138698;-78
2022/11/06 09:29:10;;;;;;;21.90;11.30;;;;;;;9.51;86.04;98852.08;106689;1310;22315;-78
2022/11/06 09:31:36;;;;;;;23.40;11.00;;;;;;;9.54;85.71;98854.09;106532;1310;139210;-78
2022/11/06 09:34:02;;;;;;;20.30;11.10;;;;;;;9.55;85.73;98853.33;106631;1295;22121;-78
2022/11/06 09:36:29;;;;;;;20.50;10.90;;;;;;;9.54;85.37;98853.22;106430;1310;22277;-79
2022/11/06 09:38:56;;;;;;;25.90;11.90;;;;;;;9.55;85.47;98854.42;106544;1310;138546;-78
2022/11/06 09:41:29;;;;;;;19.10;10.90;;;;;;;9.58;85.50;98853.83;106537;1310;22251;-80
2022/11/06 09:44:04;;;;;;;20.50;11.20;;;;;;;9.60;85.64;98856.39;106522;1295;138721;-79
2022/11/06 09:46:40;;;;;;;21.50;10.90;;;;;;;9.62;85.45;98856.38;106867;1291;22748;-79
2022/11/06 09:49:34;;;;;;;19.10;10.80;;;;;;;9.64;85.17;98856.84;106528;1312;22259;-79
2022/11/06 09:52:30;;;;;;;21.60;10.90;;;;;;;9.60;84.93;98856.94;106865;1302;22260;-78
2022/11/06 09:55:00;;;;;;;21.60;10.50;;;;;;;9.58;84.90;98860.36;106661;1295;22256;-78
2022/11/06 09:57:37;;;;;;;22.10;11.00;;;;;;;9.59;85.29;98858.21;106588;1310;139294;-78
2022/11/06 10:00:05;;;;;;;26.50;11.40;;;;;;;9.61;85.63;98860.94;106680;1297;22208;-79
2022/11/06 10:03:17;;;;;;;22.70;11.50;;;;;;;9.61;85.29;98853.20;106419;1310;138727;-78
2022/11/06 10:05:45;;;;;;;21.10;10.90;;;;;;;9.60;85.05;98856.49;105777;1302;22470;-79
2022/11/06 10:08:14;;;;;;;18.10;10.70;;;;;;;9.57;85.47;98853.30;105790;1318;138865;-78
2022/11/06 10:10:58;;;;;;;21.40;11.60;;;;;;;9.53;85.13;98853.52;105877;1318;22926;-78
2022/11/06 10:13:45;;;;;;;22.00;10.70;;;;;;;9.47;85.23;98852.30;105807;1318;22133;-78
2022/11/06 10:16:29;;;;;;;21.10;10.60;;;;;;;9.45;85.02;98846.52;105907;1311;22023;-79
2022/11/06 10:19:12;;;;;;;18.40;10.20;;;;;;;9.41;84.96;98845.39;105828;1318;22122;-79
2022/11/06 10:21:44;;;;;;;15.60;9.40;;;;;;;9.37;84.84;98840.30;105674;1309;138042;-78
2022/11/06 10:24:43;;;;;;;19.80;10.00;;;;;;;9.31;84.83;98841.95;105818;1318;22363;-78
2022/11/06 10:27:21;;;;;;;18.40;9.60;;;;;;;9.24;84.84;98841.77;105804;1318;139558;-78
2022/11/06 10:29:54;;;;;;;22.00;10.90;;;;;;;9.24;85.53;98838.52;105856;1317;22337;-79
2022/11/06 10:32:51;;;;;;;15.30;9.40;;;;;;;9.26;85.33;98834.95;105819;1308;138709;-78
2022/11/06 10:35:24;;;;;;;17.30;11.20;;;;;;;9.29;85.30;98830.77;106279;1297;22404;-79
2022/11/06 10:38:02;;;;;;;17.20;9.40;;;;;;;9.33;85.52;98827.09;105640;1318;138945;-79
2022/11/06 10:40:31;;;;;;;17.20;8.60;;;;;;;9.35;85.26;98826.43;105774;1318;23768;-79
2022/11/06 10:43:30;;;;;;;19.80;10.60;;;;;;;9.40;85.29;98822.32;106200;1310;21979;-78
2022/11/06 10:46:27;;;;;;;17.30;9.00;;;;;;;9.45;85.41;98815.41;106361;1303;138410;-78
2022/11/06 10:49:00;;;;;;;14.50;8.10;;;;;;;9.52;85.31;98808.13;106549;1310;22165;-79
2022/11/06 10:51:47;;;;;;;17.40;8.60;;;;;;;9.57;84.84;98806.95;106422;1312;138387;-79
2022/11/06 10:54:16;;;;;;;16.70;9.00;;;;;;;9.59;84.04;98802.58;106670;1303;22419;-80
2022/11/06 10:57:13;;;;;;;17.40;9.70;;;;;;;9.53;83.59;98804.21;106485;1296;138464;-78
2022/11/06 10:59:39;;;;;;;14.40;8.50;;;;;;;9.54;84.32;98802.40;106666;1310;22303;-79
2022/11/06 11:02:32;;;;;;;15.40;9.20;;;;;;;9.56;83.63;98798.14;106546;1310;138784;-79
2022/11/06 11:04:58;;;;;;;16.80;9.60;;;;;;;9.56;83.82;98791.78;106899;1289;22176;-79
2022/11/06 11:07:29;;;;;;;16.80;9.60;;;;;;;9.57;83.70;98793.62;106361;1299;22188;-78
2022/11/06 11:09:56;;;;;;;17.00;9.80;;;;;;;9.62;84.29;98790.82;106537;1310;138136;-79
2022/11/06 11:12:31;;;;;;;19.40;10.10;;;;;;;9.67;84.44;98788.50;106593;1310;22392;-79
2022/11/06 11:15:18;;;;;;;19.10;10.00;;;;;;;9.70;83.92;98786.90;106325;1312;138612;-79
2022/11/06 11:18:07;;;;;;;16.00;9.40;;;;;;;9.73;83.84;98782.05;106675;1297;22214;-79
2022/11/06 11:20:35;;;;;;;;;;;;;;;9.74;83.98;98783.24;106550;1310;138415;-79
2022/11/06 11:23:18;;;;;;;19.30;8.90;;;;;;;9.74;84.21;98780.77;106536;1310;22332;-78
2022/11/06 11:25:55;;;;;;;19.80;10.40;;;;;;;9.69;83.67;98778.59;106393;1310;138527;-78
2022/11/06 11:28:35;;;;;;;20.20;10.20;;;;;;;9.67;83.89;98771.89;106371;1312;22603;-78
2022/11/06 11:31:15;;;;;;;17.90;10.70;;;;;;;9.65;83.70;98773.59;106532;1309;22190;-78
2022/11/06 11:33:54;;;;;;;17.10;10.10;;;;;;;9.66;84.24;98770.73;106471;1310;138523;-79
2022/11/06 11:36:20;;;;;;;18.80;9.90;;;;;;;9.71;84.07;98766.90;106551;1295;22320;-79
2022/11/06 11:38:47;;;;;;;15.00;8.60;;;;;;;9.72;84.06;98768.72;106474;1302;138572;-79
2022/11/06 11:41:19;;;;;;;17.80;9.90;;;;;;;9.71;83.96;98766.35;106592;1310;22304;-79
2022/11/06 11:44:16;;;;;;;16.70;9.80;;;;;;;9.72;84.31;98762.70;106419;1310;138587;-79
2022/11/06 11:46:50;;;;;;;15.80;8.10;;;;;;;9.72;83.37;98760.35;106467;1296;22221;-80
2022/11/06 11:49:33;;;;;;;14.40;8.00;;;;;;;9.69;82.95;98760.38;106434;1306;22935;-79
2022/11/06 11:52:03;;;;;;;16.10;8.20;;;;;;;9.68;83.41;98765.14;106423;1310;22989;-79
2022/11/06 11:54:34;;;;;;;18.00;8.60;;;;;;;9.70;83.62;98759.05;106594;1310;23106;-79